02:02
Airports
History
Links
Donate
Help keep this website running!
PayPal
Bitcoin
This page is community maintained. The information is intended for PC simulator navigation or reference.
Always use approved charts for navigation.
LILB
Alzate Brianza
Alzate Brianza (LILB)
Alzate Brianza, Lombardia, Italy (22040)
(U)
Lat/Lng:45° 46' 10" N / 9° 9' 40" E
45.769444 / 9.161111
Elevation:1260'ft / 384mMSL
ID / ICAO:LILB
Runways:1
Longest:21-03
Asphalt 596m / 1,954ft
Nearby Weather01:50 GMT 2017-09-20
Nearby weather at LSZA, Lugano located 20.2 nautical miles from LILB
Altimeter: 29.97
Visibility: 6.2 statute miles
Wind: 1 knots (from VRB°)
Temp: 9°c / 48°f
Humidity: 93.4%

METAR: LSZA 200150Z AUTO VRB01KT 9999 NSC 09/08 Q1015

(Powered by phpweather)
Nearby VORs <50NM
Nearby NDBs
Runway 21 / 03
Dimensions:595.5 x 14.9m 1954' x 49'ft
Surface:Asphalt
Runway 21 [A]Runway 03 [B]
Heading:213°TH 033°TH
Lat:
Lng:
45° 46' 18.05"N
9° 9' 47.79"E
45° 46' 1.94"N
9° 9' 32.21"E
User Notes and Comments
45° 46' 10" N / 9° 9' 40" E
Distance To
Airport ID:
Nearby Airports
(U) VENEGONO 13.3 NM
LILN W 261°
(U) Bresso 16.0 NM
LIMB S 172°
4 Calcinate del Pesce 19.1 NM
LILC W 278°
(C) Lugano 20.2 NM
LSZA ( WX ) NW 323°
4 Valbrembo 21.1 NM
LILV E 99°
(C) Milano Linate 23.0 NM
LIML ( WX ) SSE 166°
(C) Milano Malpensa 23.0 NM
LIMC ( WX ) WSW 245°
VFR Chart
Flight Planning at SkyVector.com